Time;durP1;ratioP1;P1;durP2;ratioP2;P2;SDS_P1;SDS_P2;PMS_P1;PMS_P2;Temp;Humidity;BMP_temperature;BMP_pressure;BME280_temperature;BME280_humidity;BME280_pressure;Samples;Min_cycle;Max_cycle;Signal;HPM_P1;HPM_P2
2023/03/17 00:01:10;;;;;;;6.00;5.70;;;8.80;99.90;;;;;;5037331;28;20255;-66
2023/03/17 00:03:40;;;;;;;5.83;5.53;;;8.80;99.90;;;;;;5037705;28;20199;-66
2023/03/17 00:06:23;;;;;;;5.87;5.57;;;8.80;99.90;;;;;;5036381;28;20179;-65
2023/03/17 00:08:49;;;;;;;6.33;5.80;;;8.70;99.90;;;;;;5038154;28;20171;-66
2023/03/17 00:11:16;;;;;;;8.50;5.10;;;8.70;99.90;;;;;;5037462;28;20248;-65
2023/03/17 00:13:43;;;;;;;5.73;5.23;;;8.70;99.90;;;;;;5037709;28;20214;-65
2023/03/17 00:16:20;;;;;;;5.93;5.33;;;8.70;99.90;;;;;;5037537;28;20179;-65
2023/03/17 00:18:48;;;;;;;6.43;5.60;;;8.70;99.90;;;;;;5037838;28;20652;-65
2023/03/17 00:21:18;;;;;;;6.20;5.90;;;8.60;99.90;;;;;;5037316;28;20167;-66
2023/03/17 00:23:50;;;;;;;6.03;5.47;;;8.60;99.90;;;;;;5037804;28;20190;-66
2023/03/17 00:26:16;;;;;;;5.97;5.67;;;8.60;99.90;;;;;;5037616;28;20474;-65
2023/03/17 00:28:42;;;;;;;5.97;5.60;;;8.60;99.90;;;;;;5037519;28;20167;-66
2023/03/17 00:31:23;;;;;;;5.53;5.23;;;8.60;99.90;;;;;;5037258;28;20179;-66
2023/03/17 00:33:51;;;;;;;6.27;5.73;;;8.50;99.90;;;;;;5037597;28;20206;-65
2023/03/17 00:36:29;;;;;;;5.97;5.33;;;8.50;99.90;;;;;;5037444;28;20174;-65
2023/03/17 00:38:56;;;;;;;5.57;5.27;;;8.40;99.90;;;;;;5037565;28;20171;-65
2023/03/17 00:41:21;;;;;;;5.60;5.27;;;8.40;99.90;;;;;;5037139;28;20196;-65
2023/03/17 00:43:48;;;;;;;5.83;5.47;;;8.30;99.90;;;;;;5037554;28;20210;-65
2023/03/17 00:46:17;;;;;;;6.47;6.17;;;8.30;99.90;;;;;;5037469;28;20206;-65
2023/03/17 00:48:44;;;;;;;5.80;5.50;;;8.30;99.90;;;;;;5034203;28;20266;-65
2023/03/17 00:51:10;;;;;;;6.07;5.60;;;8.30;99.90;;;;;;5033997;28;20254;-65
2023/03/17 00:53:36;;;;;;;5.30;5.00;;;8.30;99.90;;;;;;5034111;28;20203;-65
2023/03/17 00:56:02;;;;;;;5.33;5.03;;;8.30;99.90;;;;;;5034309;28;20170;-65
2023/03/17 00:58:31;;;;;;;5.40;5.10;;;8.30;99.90;;;;;;5034009;28;20659;-65
2023/03/17 01:00:57;;;;;;;5.73;5.33;;;8.30;99.90;;;;;;5033803;28;20439;-66
2023/03/17 01:03:22;;;;;;;4.90;4.70;;;8.30;99.90;;;;;;5033660;28;20199;-66
2023/03/17 01:05:50;;;;;;;4.93;4.70;;;8.30;99.90;;;;;;5034141;28;20182;-66
2023/03/17 01:08:16;;;;;;;5.93;5.30;;;8.40;99.90;;;;;;5033880;28;20176;-66
2023/03/17 01:10:42;;;;;;;5.20;4.90;;;8.30;99.90;;;;;;5033480;28;20180;-66
2023/03/17 01:13:11;;;;;;;5.90;5.40;;;8.30;99.90;;;;;;5033494;28;20211;-66
2023/03/17 01:15:43;;;;;;;5.13;4.87;;;8.30;99.90;;;;;;5033969;28;20644;-66
2023/03/17 01:18:11;;;;;;;5.07;4.87;;;8.30;99.90;;;;;;5033956;28;20374;-65
2023/03/17 01:20:38;;;;;;;6.97;5.73;;;8.30;99.90;;;;;;5033609;28;20543;-65
2023/03/17 01:23:04;;;;;;;6.73;6.33;;;8.20;99.90;;;;;;5033812;28;20206;-66
2023/03/17 01:25:30;;;;;;;6.10;5.80;;;8.20;99.90;;;;;;5033689;28;20254;-64
2023/03/17 01:27:57;;;;;;;5.30;5.00;;;8.20;99.90;;;;;;5033057;28;20171;-67
2023/03/17 01:30:31;;;;;;;5.73;5.43;;;8.10;99.90;;;;;;5031830;28;20225;-64
2023/03/17 01:32:57;;;;;;;6.97;5.47;;;8.10;99.90;;;;;;5033504;28;20286;-66
2023/03/17 01:35:25;;;;;;;5.93;5.60;;;8.00;99.90;;;;;;5033166;28;20605;-66
2023/03/17 01:37:51;;;;;;;6.03;5.67;;;8.00;99.90;;;;;;5032800;28;20218;-66
2023/03/17 01:40:24;;;;;;;5.20;5.00;;;7.90;99.90;;;;;;5033164;28;20180;-66
2023/03/17 01:43:01;;;;;;;8.87;5.80;;;7.90;99.90;;;;;;5033302;28;20270;-66
2023/03/17 01:46:05;;;;;;;6.13;5.83;;;7.90;99.90;;;;;;5033317;28;20226;-64
2023/03/17 01:48:36;;;;;;;6.03;5.73;;;7.80;99.90;;;;;;5033155;28;20171;-66
2023/03/17 01:51:05;;;;;;;6.17;5.47;;;7.80;99.90;;;;;;5032178;28;20683;-66
2023/03/17 01:53:32;;;;;;;6.00;5.60;;;7.80;99.90;;;;;;5031673;28;20215;-66
2023/03/17 01:55:58;;;;;;;5.27;5.07;;;7.80;99.90;;;;;;5033245;28;20175;-66
2023/03/17 01:58:25;;;;;;;5.40;5.20;;;7.80;99.90;;;;;;5033019;28;20167;-66
2023/03/17 02:00:50;;;;;;;5.63;5.33;;;7.80;99.90;;;;;;5032521;28;20668;-66
2023/03/17 02:03:17;;;;;;;6.00;5.70;;;7.80;99.90;;;;;;5032844;28;20199;-66
2023/03/17 02:05:43;;;;;;;5.80;5.50;;;7.80;99.90;;;;;;5032111;28;20176;-64
2023/03/17 02:08:12;;;;;;;5.30;5.10;;;7.80;99.90;;;;;;5032840;28;20172;-65
2023/03/17 02:10:39;;;;;;;6.10;5.73;;;7.80;99.90;;;;;;5032427;28;20215;-64
2023/03/17 02:13:08;;;;;;;6.67;6.23;;;7.70;99.90;;;;;;5032889;28;20592;-65
2023/03/17 02:15:40;;;;;;;5.50;5.20;;;7.70;99.90;;;;;;5032772;28;20262;-64
2023/03/17 02:18:08;;;;;;;6.17;5.87;;;7.70;99.90;;;;;;5032662;28;20172;-65
2023/03/17 02:20:33;;;;;;;6.20;5.80;;;7.70;99.90;;;;;;5032284;28;20637;-64
2023/03/17 02:23:00;;;;;;;5.70;5.27;;;7.70;99.90;;;;;;5032458;28;20195;-65
2023/03/17 02:25:29;;;;;;;5.63;5.33;;;7.60;99.90;;;;;;5032527;28;20175;-64
2023/03/17 02:28:00;;;;;;;5.93;5.60;;;7.60;99.90;;;;;;5031789;28;20167;-64
2023/03/17 02:30:27;;;;;;;6.23;5.83;;;7.60;99.90;;;;;;5031865;28;20250;-64
2023/03/17 02:32:53;;;;;;;5.77;5.47;;;7.60;99.90;;;;;;5032311;28;20573;-65
2023/03/17 02:35:19;;;;;;;6.00;5.70;;;7.60;99.90;;;;;;5032269;28;20175;-65
2023/03/17 02:37:45;;;;;;;5.93;5.53;;;7.50;99.90;;;;;;5032357;28;20168;-65
2023/03/17 02:40:12;;;;;;;5.30;5.10;;;7.50;99.90;;;;;;5032036;28;20627;-64
2023/03/17 02:42:38;;;;;;;5.80;5.50;;;7.50;99.90;;;;;;5032017;28;20677;-65
2023/03/17 02:45:13;;;;;;;5.40;5.20;;;7.50;99.90;;;;;;5032137;28;20258;-64
2023/03/17 02:47:40;;;;;;;6.17;5.67;;;7.40;99.90;;;;;;5032203;28;20186;-65
2023/03/17 02:50:06;;;;;;;5.50;5.30;;;7.30;99.90;;;;;;5031845;28;20175;-64
2023/03/17 02:52:32;;;;;;;5.53;5.27;;;7.30;99.90;;;;;;5031648;28;20217;-65
2023/03/17 02:54:57;;;;;;;5.93;5.63;;;7.20;99.90;;;;;;5032135;28;20164;-64
2023/03/17 02:57:23;;;;;;;5.43;5.13;;;7.20;99.90;;;;;;5031873;28;20191;-65
2023/03/17 02:59:49;;;;;;;6.07;5.67;;;7.10;99.90;;;;;;5031683;28;20171;-64
2023/03/17 03:02:15;;;;;;;6.27;5.77;;;7.10;99.90;;;;;;5031768;28;20187;-65
2023/03/17 03:04:42;;;;;;;5.80;5.50;;;7.00;99.90;;;;;;5031724;28;20662;-64
2023/03/17 03:07:08;;;;;;;5.57;5.27;;;7.00;99.90;;;;;;5031795;28;20173;-64
2023/03/17 03:09:34;;;;;;;5.37;5.07;;;7.00;99.90;;;;;;5031737;28;20889;-64
2023/03/17 03:12:00;;;;;;;5.80;5.50;;;6.90;99.90;;;;;;5030973;28;20203;-64
2023/03/17 03:14:26;;;;;;;5.80;5.50;;;6.90;99.90;;;;;;5031691;28;20179;-65
2023/03/17 03:16:51;;;;;;;5.73;5.23;;;6.90;99.90;;;;;;5031699;28;20668;-64
2023/03/17 03:19:17;;;;;;;6.20;5.70;;;6.90;99.90;;;;;;5031322;28;20171;-65
2023/03/17 03:21:43;;;;;;;5.97;5.57;;;6.90;99.90;;;;;;5031568;28;20329;-63
2023/03/17 03:24:09;;;;;;;5.63;5.33;;;6.90;99.90;;;;;;5030273;28;20180;-64
2023/03/17 03:26:35;;;;;;;7.23;5.73;;;6.80;99.90;;;;;;5031594;28;20203;-64
2023/03/17 03:29:02;;;;;;;6.90;5.40;;;6.80;99.90;;;;;;5030914;28;20167;-64
2023/03/17 03:31:28;;;;;;;5.33;5.00;;;6.80;99.90;;;;;;5031208;28;20322;-64
2023/03/17 03:33:54;;;;;;;5.50;5.17;;;6.80;99.90;;;;;;5031432;28;20230;-64
2023/03/17 03:36:20;;;;;;;6.13;5.57;;;6.80;99.90;;;;;;5031576;28;20176;-64
2023/03/17 03:38:46;;;;;;;5.60;5.30;;;6.80;99.90;;;;;;5031497;28;20688;-64
2023/03/17 03:41:12;;;;;;;6.30;5.80;;;6.70;99.90;;;;;;5031276;28;20164;-66
2023/03/17 03:43:37;;;;;;;5.60;5.30;;;6.70;99.90;;;;;;5031410;28;20607;-64
2023/03/17 03:46:03;;;;;;;6.13;5.73;;;6.70;99.90;;;;;;5031431;28;20719;-65
2023/03/17 03:48:29;;;;;;;5.50;5.10;;;6.70;99.90;;;;;;5031323;28;20191;-64
2023/03/17 03:50:57;;;;;;;5.20;5.00;;;6.70;99.90;;;;;;5031074;28;20535;-65
2023/03/17 03:53:23;;;;;;;5.30;5.00;;;6.70;99.90;;;;;;5031187;28;20211;-65
2023/03/17 03:55:48;;;;;;;5.57;5.20;;;6.70;99.90;;;;;;5031407;28;20538;-65
2023/03/17 03:58:14;;;;;;;5.73;5.43;;;6.70;99.90;;;;;;5031266;28;20168;-64
2023/03/17 04:00:40;;;;;;;5.93;5.53;;;6.70;99.90;;;;;;5030946;28;20164;-64
2023/03/17 04:03:06;;;;;;;5.70;5.40;;;6.80;99.90;;;;;;5031238;28;20199;-64
2023/03/17 04:05:32;;;;;;;5.40;5.00;;;6.80;99.90;;;;;;5031283;28;20560;-65
2023/03/17 04:07:57;;;;;;;5.10;4.90;;;6.80;99.90;;;;;;5031306;28;20172;-64
2023/03/17 04:10:23;;;;;;;5.70;5.30;;;6.80;99.90;;;;;;5030826;28;20172;-64
2023/03/17 04:12:49;;;;;;;6.03;5.63;;;6.80;99.90;;;;;;5030966;28;20218;-64
2023/03/17 04:15:18;;;;;;;5.27;5.03;;;6.80;99.90;;;;;;5031080;28;20669;-64
2023/03/17 04:17:44;;;;;;;5.87;5.43;;;6.80;99.90;;;;;;5031320;28;20254;-64
2023/03/17 04:20:11;;;;;;;6.13;5.83;;;6.80;99.90;;;;;;5030967;28;20252;-64
2023/03/17 04:22:37;;;;;;;5.93;5.63;;;6.80;99.90;;;;;;5030890;28;20699;-64
2023/03/17 04:25:03;;;;;;;6.30;6.00;;;6.80;99.90;;;;;;5034845;28;20193;-64
2023/03/17 04:27:29;;;;;;;6.23;5.93;;;6.90;99.90;;;;;;5034342;28;20188;-64
2023/03/17 04:29:55;;;;;;;6.33;5.83;;;6.90;99.90;;;;;;5033245;28;20258;-64
2023/03/17 04:32:21;;;;;;;5.97;5.67;;;6.80;99.90;;;;;;5034642;28;20779;-64
2023/03/17 04:34:46;;;;;;;5.90;5.60;;;6.80;99.90;;;;;;5034184;28;20515;-65
2023/03/17 04:37:12;;;;;;;6.07;5.67;;;6.80;99.90;;;;;;5033407;28;20502;-64
2023/03/17 04:39:38;;;;;;;8.60;6.03;;;6.80;99.90;;;;;;5033390;28;20199;-65
2023/03/17 04:42:05;;;;;;;5.63;5.33;;;6.80;99.90;;;;;;5034128;28;20234;-65
2023/03/17 04:44:31;;;;;;;6.10;5.60;;;6.70;99.90;;;;;;5034690;28;20259;-64
2023/03/17 04:46:56;;;;;;;5.80;5.50;;;6.70;99.90;;;;;;5034170;28;20720;-64
2023/03/17 04:49:22;;;;;;;6.27;5.97;;;6.60;99.90;;;;;;5033675;28;20309;-64
2023/03/17 04:51:47;;;;;;;5.77;5.37;;;6.60;99.90;;;;;;5034091;28;20278;-64
2023/03/17 04:54:13;;;;;;;5.50;5.30;;;6.70;99.90;;;;;;5034170;28;20203;-64
2023/03/17 04:56:39;;;;;;;5.70;5.40;;;6.60;99.90;;;;;;5033889;28;20171;-64
2023/03/17 04:59:04;;;;;;;5.90;5.60;;;6.70;99.90;;;;;;5033790;28;20175;-65
2023/03/17 05:01:31;;;;;;;5.73;5.33;;;6.70;99.90;;;;;;5033835;28;20172;-64
2023/03/17 05:03:56;;;;;;;5.77;5.47;;;6.70;99.90;;;;;;5033972;28;20191;-64
2023/03/17 05:06:22;;;;;;;6.53;6.13;;;6.70;99.90;;;;;;5034100;28;20175;-65
2023/03/17 05:08:48;;;;;;;6.00;5.60;;;6.70;99.90;;;;;;5034139;28;20198;-65
2023/03/17 05:11:14;;;;;;;5.60;5.40;;;6.70;99.90;;;;;;5033727;28;20175;-64
2023/03/17 05:13:40;;;;;;;5.80;5.50;;;6.70;99.90;;;;;;5034034;28;20207;-65
2023/03/17 05:16:07;;;;;;;6.13;5.73;;;6.70;99.90;;;;;;5034033;28;20182;-64
2023/03/17 05:18:32;;;;;;;5.40;5.20;;;6.70;99.90;;;;;;5033785;28;20164;-65
2023/03/17 05:20:59;;;;;;;5.87;5.57;;;6.70;99.90;;;;;;5033030;28;20167;-65
2023/03/17 05:23:24;;;;;;;6.80;6.30;;;6.80;99.90;;;;;;5033640;28;20266;-65
2023/03/17 05:25:51;;;;;;;6.37;6.07;;;6.80;99.90;;;;;;5033455;28;20237;-64
2023/03/17 05:28:18;;;;;;;5.63;5.33;;;6.80;99.90;;;;;;5033584;28;20206;-64
2023/03/17 05:30:44;;;;;;;6.20;5.80;;;6.80;99.90;;;;;;5033082;28;20171;-65
2023/03/17 05:33:10;;;;;;;7.70;7.20;;;6.80;99.90;;;;;;5033310;28;20207;-65
2023/03/17 05:35:36;;;;;;;5.87;5.50;;;6.80;99.90;;;;;;5032914;28;20175;-65
2023/03/17 05:38:02;;;;;;;7.10;6.63;;;6.80;99.90;;;;;;5033496;28;20175;-65
2023/03/17 05:40:27;;;;;;;7.27;6.50;;;6.90;99.90;;;;;;5032914;28;20183;-64
2023/03/17 05:42:53;;;;;;;6.70;6.40;;;6.80;99.90;;;;;;5033184;28;20380;-65
2023/03/17 05:45:19;;;;;;;6.63;6.33;;;6.90;99.90;;;;;;5033150;28;20575;-65
2023/03/17 05:47:44;;;;;;;7.37;6.50;;;6.90;99.90;;;;;;5033339;28;20168;-65
2023/03/17 05:50:11;;;;;;;7.33;6.83;;;6.90;99.90;;;;;;5032960;28;20204;-65
2023/03/17 05:52:37;;;;;;;6.97;6.50;;;6.90;99.90;;;;;;5033137;28;20199;-65
2023/03/17 05:55:04;;;;;;;6.83;6.43;;;7.00;99.90;;;;;;5031614;28;20179;-64
2023/03/17 05:57:29;;;;;;;7.30;6.60;;;7.00;99.90;;;;;;5032947;28;20265;-65
2023/03/17 05:59:55;;;;;;;7.67;6.60;;;7.00;99.90;;;;;;5032673;28;20226;-65
2023/03/17 06:02:20;;;;;;;6.57;6.17;;;7.00;99.90;;;;;;5033043;28;20227;-66
2023/03/17 06:04:46;;;;;;;6.73;6.23;;;7.00;99.90;;;;;;5032719;28;20230;-65
2023/03/17 06:07:12;;;;;;;6.23;5.93;;;7.10;99.90;;;;;;5031562;28;20171;-65
2023/03/17 06:09:38;;;;;;;6.07;5.77;;;7.10;99.90;;;;;;5032806;28;20263;-64
2023/03/17 06:12:04;;;;;;;6.47;6.17;;;7.10;99.90;;;;;;5032630;28;20731;-65
2023/03/17 06:14:29;;;;;;;6.63;6.27;;;7.10;99.90;;;;;;5032804;28;20184;-65
2023/03/17 06:16:55;;;;;;;6.93;6.57;;;7.20;99.90;;;;;;5032729;28;20175;-65
2023/03/17 06:19:21;;;;;;;6.47;6.17;;;7.20;99.90;;;;;;5032544;28;20221;-65
2023/03/17 06:21:47;;;;;;;7.10;6.57;;;7.20;99.90;;;;;;5032444;28;20183;-65
2023/03/17 06:24:13;;;;;;;7.40;6.90;;;7.30;99.90;;;;;;5032443;28;20180;-65
2023/03/17 06:26:38;;;;;;;8.27;6.97;;;7.30;99.90;;;;;;5032718;28;20540;-64
2023/03/17 06:29:08;;;;;;;6.57;6.20;;;7.40;99.90;;;;;;5032682;28;20176;-63
2023/03/17 06:31:35;;;;;;;7.53;6.93;;;7.40;99.90;;;;;;5032681;28;20171;-64
2023/03/17 06:34:00;;;;;;;6.77;6.47;;;7.50;99.90;;;;;;5032493;28;20199;-65
2023/03/17 06:36:26;;;;;;;8.23;7.67;;;7.60;99.90;;;;;;5032321;28;20180;-64
2023/03/17 06:38:52;;;;;;;6.87;6.57;;;7.60;99.90;;;;;;5032178;28;20649;-66
2023/03/17 06:41:18;;;;;;;7.30;6.70;;;7.70;99.90;;;;;;5028553;28;20665;-65
2023/03/17 06:43:44;;;;;;;6.87;6.40;;;7.70;99.90;;;;;;5031480;28;20202;-65
2023/03/17 06:46:09;;;;;;;6.87;6.43;;;7.80;99.90;;;;;;5030964;28;20168;-66
2023/03/17 06:48:35;;;;;;;6.30;5.90;;;7.90;99.90;;;;;;5032499;28;20545;-65
2023/03/17 06:51:01;;;;;;;6.90;6.40;;;8.00;99.90;;;;;;5031358;28;20175;-64
2023/03/17 06:53:27;;;;;;;5.97;5.67;;;8.00;99.90;;;;;;5031924;28;20207;-64
2023/03/17 06:55:52;;;;;;;6.50;6.00;;;8.10;99.90;;;;;;5032923;28;20195;-66
2023/03/17 06:58:19;;;;;;;5.23;4.93;;;8.10;99.90;;;;;;5030911;28;20182;-64
2023/03/17 07:00:45;;;;;;;5.63;5.33;;;8.20;99.90;;;;;;5031507;28;20174;-64
2023/03/17 07:03:11;;;;;;;5.50;5.20;;;8.30;99.90;;;;;;5031718;28;20226;-65
2023/03/17 07:05:38;;;;;;;6.23;5.80;;;8.40;99.90;;;;;;5030937;28;20204;-65
2023/03/17 07:08:04;;;;;;;6.43;5.87;;;8.60;99.90;;;;;;5031670;28;20171;-65
2023/03/17 07:10:32;;;;;;;6.40;5.80;;;8.70;99.90;;;;;;5031331;28;20595;-65
2023/03/17 07:12:57;;;;;;;5.53;5.23;;;8.80;99.90;;;;;;5031312;28;20207;-66
2023/03/17 07:15:23;;;;;;;5.37;5.07;;;9.00;99.90;;;;;;5031511;28;20167;-65
2023/03/17 07:17:49;;;;;;;6.37;5.87;;;9.20;99.90;;;;;;5031731;28;20246;-65
2023/03/17 07:20:15;;;;;;;5.30;5.00;;;9.30;99.90;;;;;;5031279;28;20197;-64
2023/03/17 07:22:41;;;;;;;4.83;4.53;;;9.50;99.90;;;;;;5031418;28;20187;-64
2023/03/17 07:25:08;;;;;;;5.83;5.33;;;9.80;99.90;;;;;;5030442;28;20248;-64
2023/03/17 07:27:34;;;;;;;5.33;4.93;;;10.10;99.90;;;;;;5031016;28;20171;-65
2023/03/17 07:30:03;;;;;;;5.20;4.70;;;10.30;99.90;;;;;;5030494;28;20182;-65
2023/03/17 07:32:29;;;;;;;5.10;4.73;;;10.60;99.90;;;;;;5020360;28;20215;-65
2023/03/17 07:34:55;;;;;;;5.00;4.60;;;10.80;99.90;;;;;;5011353;28;20230;-64
2023/03/17 07:37:21;;;;;;;4.60;4.30;;;11.00;99.90;;;;;;5035803;28;20193;-64
2023/03/17 07:39:47;;;;;;;4.90;4.60;;;11.10;99.90;;;;;;5031631;28;20174;-65
2023/03/17 07:42:14;;;;;;;5.00;4.70;;;11.30;99.90;;;;;;5033377;28;20673;-65
2023/03/17 07:44:40;;;;;;;8.10;4.57;;;11.50;99.90;;;;;;5050389;28;20163;-65
2023/03/17 07:47:07;;;;;;;5.40;4.50;;;11.70;99.90;;;;;;5045429;28;20181;-65
2023/03/17 07:49:33;;;;;;;5.00;4.70;;;11.90;99.90;;;;;;5044765;28;20240;-65
2023/03/17 07:52:00;;;;;;;5.23;4.40;;;11.90;99.90;;;;;;5031187;28;20566;-64
2023/03/17 07:54:26;;;;;;;5.20;4.90;;;11.80;99.90;;;;;;5031273;28;20186;-64
2023/03/17 07:56:52;;;;;;;6.43;4.90;;;11.70;99.90;;;;;;5049296;28;20178;-64
2023/03/17 07:59:18;;;;;;;4.67;4.37;;;11.50;99.90;;;;;;5054815;28;20175;-64
2023/03/17 08:01:43;;;;;;;5.00;4.70;;;11.30;99.90;;;;;;5038606;28;20194;-64
2023/03/17 08:04:11;;;;;;;5.60;5.20;;;11.20;99.90;;;;;;5048428;28;20183;-64
2023/03/17 08:06:37;;;;;;;6.33;6.03;;;11.10;99.90;;;;;;5054819;28;20662;-65
2023/03/17 08:09:03;;;;;;;5.77;5.47;;;11.10;99.90;;;;;;5042215;28;20191;-64
2023/03/17 08:11:29;;;;;;;5.80;5.30;;;11.10;99.90;;;;;;5034647;28;20660;-65
2023/03/17 08:13:54;;;;;;;6.30;5.90;;;11.20;99.90;;;;;;5034544;28;20234;-65
2023/03/17 08:16:20;;;;;;;6.10;5.60;;;11.30;99.90;;;;;;5039980;28;20186;-65
2023/03/17 08:18:46;;;;;;;7.03;4.70;;;11.40;99.90;;;;;;5039184;28;20170;-65
2023/03/17 08:21:12;;;;;;;4.67;4.30;;;11.50;99.90;;;;;;5054681;28;20163;-65
2023/03/17 08:23:38;;;;;;;7.03;5.00;;;11.60;99.90;;;;;;5054632;28;20195;-65
2023/03/17 08:26:04;;;;;;;5.03;4.63;;;11.80;99.90;;;;;;5054860;28;20312;-65
2023/03/17 08:28:30;;;;;;;5.10;4.50;;;12.00;99.90;;;;;;5054596;28;20194;-65
2023/03/17 08:31:07;;;;;;;4.90;4.60;;;12.10;99.90;;;;;;5054255;28;20174;-65
2023/03/17 08:33:33;;;;;;;5.20;4.90;;;12.30;99.90;;;;;;5053863;28;20202;-65
2023/03/17 08:35:59;;;;;;;5.23;4.73;;;12.50;99.90;;;;;;5054639;28;20167;-64
2023/03/17 08:38:24;;;;;;;4.67;4.30;;;12.50;99.90;;;;;;5054490;28;20178;-65
2023/03/17 08:40:51;;;;;;;4.90;4.60;;;12.60;99.90;;;;;;5054388;28;20532;-65
2023/03/17 08:43:17;;;;;;;4.90;4.60;;;12.70;99.90;;;;;;5054373;28;20195;-65
2023/03/17 08:45:43;;;;;;;4.53;4.33;;;12.70;99.90;;;;;;5053344;28;20262;-65
2023/03/17 08:48:09;;;;;;;4.93;4.53;;;12.70;99.90;;;;;;5054667;28;20254;-64
2023/03/17 08:50:34;;;;;;;5.43;5.10;;;12.60;99.90;;;;;;5054113;28;20178;-65
2023/03/17 08:53:00;;;;;;;5.77;5.37;;;12.60;99.90;;;;;;5054054;28;20225;-65
2023/03/17 08:55:26;;;;;;;5.67;5.27;;;12.70;99.90;;;;;;5054240;28;20177;-65
2023/03/17 08:57:51;;;;;;;6.27;5.70;;;12.70;99.90;;;;;;5054289;28;20171;-65
2023/03/17 09:00:19;;;;;;;5.83;5.43;;;12.80;99.90;;;;;;5053894;28;20170;-65
2023/03/17 09:02:46;;;;;;;4.97;4.50;;;13.00;99.90;;;;;;5054072;28;20201;-65
2023/03/17 09:05:13;;;;;;;4.97;4.57;;;13.20;99.90;;;;;;5054047;28;20540;-65
2023/03/17 09:07:39;;;;;;;4.73;4.43;;;13.30;99.90;;;;;;5054284;28;20202;-65
2023/03/17 09:10:06;;;;;;;4.53;4.33;;;13.50;99.90;;;;;;5052779;28;20545;-65
2023/03/17 09:12:32;;;;;;;4.60;4.30;;;13.70;99.90;;;;;;5053642;28;20206;-65
2023/03/17 09:14:58;;;;;;;5.70;4.30;;;13.90;99.90;;;;;;5053889;28;20170;-65
2023/03/17 09:17:24;;;;;;;4.77;4.30;;;14.30;99.90;;;;;;5053909;28;20179;-65
2023/03/17 09:19:49;;;;;;;4.80;4.40;;;14.40;99.90;;;;;;5053641;28;20182;-65
2023/03/17 09:22:17;;;;;;;4.87;4.50;;;14.60;99.90;;;;;;5053666;28;20194;-65
2023/03/17 09:24:43;;;;;;;4.57;4.20;;;14.80;99.90;;;;;;5053903;28;20507;-65
2023/03/17 09:27:09;;;;;;;4.27;4.07;;;14.90;99.90;;;;;;5053490;28;20162;-64
2023/03/17 09:29:35;;;;;;;4.47;4.17;;;15.00;99.90;;;;;;5053454;28;20262;-65
2023/03/17 09:32:01;;;;;;;5.07;3.90;;;15.20;99.90;;;;;;5049669;28;20198;-64
2023/03/17 09:34:26;;;;;;;4.23;3.83;;;15.30;99.90;;;;;;5043799;28;20167;-65
2023/03/17 09:36:53;;;;;;;6.77;4.20;;;15.50;99.90;;;;;;5039067;28;20636;-65
2023/03/17 09:39:21;;;;;;;4.47;4.07;;;15.60;99.90;;;;;;5039327;28;20163;-66
2023/03/17 09:41:57;;;;;;;4.40;3.90;;;15.70;99.90;;;;;;5033463;28;20183;-64
2023/03/17 09:44:25;;;;;;;4.17;3.77;;;15.80;99.90;;;;;;5033495;28;20175;-65
2023/03/17 09:47:10;;;;;;;4.00;3.70;;;16.10;99.90;;;;;;5033346;28;20175;-65
2023/03/17 09:49:52;;;;;;;4.50;4.20;;;16.20;99.90;;;;;;5033384;28;20206;-65
2023/03/17 09:52:26;;;;;;;4.20;3.90;;;16.40;99.90;;;;;;5032104;28;20187;-65
2023/03/17 09:54:51;;;;;;;4.57;4.27;;;16.50;99.90;;;;;;5034389;28;20229;-65
2023/03/17 09:57:25;;;;;;;4.17;3.97;;;16.50;99.90;;;;;;5033837;28;20167;-65
2023/03/17 10:00:00;;;;;;;4.30;4.00;;;16.60;99.90;;;;;;5032936;28;20530;-65
2023/03/17 10:02:36;;;;;;;4.00;3.77;;;16.70;99.90;;;;;;5052066;28;20563;-65
2023/03/17 10:05:30;;;;;;;4.17;3.97;;;16.70;99.90;;;;;;5052867;28;20178;-65
2023/03/17 10:08:08;;;;;;;7.50;4.13;;;16.90;99.90;;;;;;5002747;28;20207;-65
2023/03/17 10:11:15;;;;;;;8.17;4.00;;;16.90;99.90;;;;;;5018277;28;20244;-65
2023/03/17 10:14:08;;;;;;;4.00;3.70;;;16.90;99.90;;;;;;5052794;28;20709;-65
2023/03/17 10:16:54;;;;;;;4.40;4.10;;;17.00;99.90;;;;;;5042727;28;20223;-64
2023/03/17 10:19:25;;;;;;;6.57;4.23;;;16.80;99.80;;;;;;5030692;28;20203;-65
2023/03/17 10:21:57;;;;;;;4.97;4.57;;;16.70;99.90;;;;;;5043859;28;20656;-65
2023/03/17 10:24:25;;;;;;;4.97;4.67;;;16.60;99.90;;;;;;5051326;28;20193;-65
2023/03/17 10:26:56;;;;;;;4.47;4.20;;;16.60;99.90;;;;;;5040474;28;20665;-65
2023/03/17 10:29:22;;;;;;;6.47;4.43;;;16.50;99.90;;;;;;5032024;28;20232;-65
2023/03/17 10:31:49;;;;;;;4.10;3.70;;;16.60;99.90;;;;;;5042237;28;20195;-66
2023/03/17 10:34:25;;;;;;;3.70;3.50;;;16.80;99.90;;;;;;5052360;28;20669;-65
2023/03/17 10:37:12;;;;;;;3.73;3.43;;;17.30;99.90;;;;;;5042145;28;20179;-65
2023/03/17 10:39:52;;;;;;;4.13;3.57;;;17.80;99.90;;;;;;5033220;28;20202;-65
2023/03/17 10:42:28;;;;;;;3.40;3.20;;;18.30;99.90;;;;;;5051992;28;20206;-66
2023/03/17 10:45:06;;;;;;;3.93;3.43;;;18.70;99.90;;;;;;5049079;28;20437;-65
2023/03/17 10:47:37;;;;;;;3.50;3.20;;;18.90;98.40;;;;;;5032620;28;20179;-65
2023/03/17 10:50:17;;;;;;;3.65;3.35;;;19.00;98.30;;;;;;5035705;28;20179;-66
2023/03/17 10:52:46;;;;;;;3.90;3.60;;;19.10;98.10;;;;;;5052050;28;20554;-65
2023/03/17 10:55:16;;;;;;;3.85;3.42;;;19.10;97.60;;;;;;5047456;28;20633;-65
2023/03/17 10:57:59;;;;;;;3.72;3.53;;;19.30;98.00;;;;;;5032112;28;20179;-65
2023/03/17 11:00:28;;;;;;;4.40;3.97;;;19.30;97.40;;;;;;5037594;28;20701;-65
2023/03/17 11:02:58;;;;;;;3.67;3.47;;;19.40;97.10;;;;;;5052021;28;20195;-65
2023/03/17 11:05:28;;;;;;;4.28;3.85;;;19.50;97.40;;;;;;5046909;28;20171;-65
2023/03/17 11:08:17;;;;;;;3.50;3.20;;;19.80;95.70;;;;;;5032089;28;20183;-65
2023/03/17 11:10:43;;;;;;;5.88;3.58;;;20.10;97.00;;;;;;5038266;28;20175;-65
2023/03/17 11:13:14;;;;;;;4.38;4.10;;;20.20;97.10;;;;;;5051462;28;20519;-65
2023/03/17 11:15:45;;;;;;;4.32;3.97;;;20.20;96.10;;;;;;5045838;28;20171;-64
2023/03/17 11:18:28;;;;;;;4.57;4.18;;;20.00;95.30;;;;;;5031863;28;20322;-65
2023/03/17 11:21:10;;;;;;;3.80;3.60;;;19.60;95.50;;;;;;5038747;28;20541;-65
2023/03/17 11:23:45;;;;;;;4.13;3.60;;;19.20;95.60;;;;;;5051555;28;20229;-65
2023/03/17 11:26:23;;;;;;;4.20;3.80;;;19.10;96.90;;;;;;5042281;28;20188;-64
2023/03/17 11:29:14;;;;;;;5.40;5.00;;;19.20;95.50;;;;;;5032063;28;20267;-64
2023/03/17 11:31:53;;;;;;;4.20;3.80;;;19.10;96.90;;;;;;5036664;28;20194;-65
2023/03/17 11:34:42;;;;;;;3.93;3.63;;;19.20;97.80;;;;;;5033089;28;20203;-65
2023/03/17 11:37:13;;;;;;;5.03;4.57;;;19.50;96.90;;;;;;5011001;28;20271;-64
2023/03/17 11:40:06;;;;;;;4.70;4.30;;;19.70;95.10;;;;;;5030896;28;20181;-64
2023/03/17 11:43:05;;;;;;;4.00;3.70;;;19.80;95.50;;;;;;5049401;28;20212;-64
2023/03/17 11:45:43;;;;;;;4.30;3.73;;;20.10;95.40;;;;;;5050100;28;20174;-65
2023/03/17 11:48:14;;;;;;;3.88;3.65;;;20.40;95.60;;;;;;5031434;28;20551;-65
2023/03/17 11:50:52;;;;;;;3.78;3.58;;;20.40;94.20;;;;;;5032347;28;20175;-65
2023/03/17 11:53:40;;;;;;;3.30;3.10;;;20.50;94.60;;;;;;5051067;28;20214;-65
2023/03/17 11:56:18;;;;;;;3.87;3.57;;;20.50;94.00;;;;;;5046674;28;20187;-65
2023/03/17 11:58:48;;;;;;;4.53;4.33;;;20.30;93.70;;;;;;5031574;28;20515;-65
2023/03/17 12:01:26;;;;;;;4.32;3.92;;;20.20;95.40;;;;;;5035565;28;20225;-65
2023/03/17 12:04:09;;;;;;;3.90;3.50;;;20.00;94.50;;;;;;5051479;28;20182;-65
2023/03/17 12:06:43;;;;;;;4.70;3.57;;;19.90;94.40;;;;;;5043702;28;20183;-65
2023/03/17 12:09:31;;;;;;;3.97;3.77;;;19.90;95.00;;;;;;5030896;28;20171;-65
2023/03/17 12:12:00;;;;;;;3.67;3.40;;;19.90;95.00;;;;;;5040913;28;20626;-64
2023/03/17 12:14:44;;;;;;;3.50;3.30;;;19.90;93.90;;;;;;5051055;28;20238;-64
2023/03/17 12:17:27;;;;;;;3.92;3.63;;;20.00;95.30;;;;;;5039778;28;20175;-64
2023/03/17 12:20:09;;;;;;;4.40;4.00;;;19.90;94.40;;;;;;5031050;28;20546;-64
2023/03/17 12:22:53;;;;;;;3.47;3.27;;;19.70;95.00;;;;;;5043701;28;20315;-65
2023/03/17 12:25:34;;;;;;;3.70;3.50;;;19.50;94.70;;;;;;5051045;28;20174;-64
2023/03/17 12:28:10;;;;;;;3.60;3.40;;;19.40;95.00;;;;;;5034185;28;20190;-66
2023/03/17 12:31:03;;;;;;;3.83;3.53;;;19.50;95.60;;;;;;5039926;28;20186;-64
2023/03/17 12:33:53;;;;;;;3.87;3.63;;;19.50;95.00;;;;;;5044351;28;20215;-64
2023/03/17 12:36:20;;;;;;;3.70;3.43;;;19.60;94.50;;;;;;5033679;28;20186;-65
2023/03/17 12:39:00;;;;;;;4.20;3.90;;;19.50;94.80;;;;;;5030325;28;20225;-65
2023/03/17 12:41:27;;;;;;;4.33;4.03;;;19.60;95.30;;;;;;5048634;28;20208;-64
2023/03/17 12:43:53;;;;;;;4.20;3.90;;;19.80;95.20;;;;;;5051096;28;20163;-65
2023/03/17 12:46:40;;;;;;;3.87;3.67;;;19.80;94.80;;;;;;5035222;28;20242;-65
2023/03/17 12:49:40;;;;;;;4.00;3.70;;;19.70;94.60;;;;;;5034183;28;20206;-64
2023/03/17 12:52:27;;;;;;;3.93;3.63;;;19.80;94.40;;;;;;5014577;28;20283;-64
2023/03/17 12:54:53;;;;;;;3.87;3.60;;;19.80;93.70;;;;;;5022164;28;20188;-64
2023/03/17 12:57:29;;;;;;;3.80;3.60;;;19.70;94.20;;;;;;5034606;28;20183;-65
2023/03/17 13:00:14;;;;;;;3.60;3.40;;;19.70;93.70;;;;;;5039493;28;20177;-65
2023/03/17 13:02:40;;;;;;;3.83;3.63;;;19.60;93.60;;;;;;5054034;28;20202;-64
2023/03/17 13:05:12;;;;;;;4.55;4.15;;;19.70;94.30;;;;;;5052208;28;20232;-65